createdAt,value
2023-03-23T16:18:38.687Z,2.40
2023-03-23T16:23:33.712Z,2.40
2023-03-23T16:41:00.013Z,2.78
2023-03-23T16:44:10.656Z,3.00
2023-03-23T16:48:05.598Z,2.53
2023-03-23T16:51:24.450Z,2.77
2023-03-23T16:54:36.828Z,3.30
2023-03-23T16:57:44.150Z,4.03
2023-03-23T17:05:04.562Z,4.00
2023-03-23T17:08:43.279Z,3.23
2023-03-23T17:11:57.482Z,3.50
2023-03-23T17:15:18.659Z,3.47
2023-03-23T17:18:51.309Z,3.45
2023-03-23T17:21:56.633Z,7.35
2023-03-23T17:25:15.683Z,3.53
2023-03-23T17:28:57.599Z,3.60
2023-03-23T17:32:26.234Z,3.40
2023-03-23T17:39:44.881Z,4.72
2023-03-23T17:43:08.303Z,3.77
2023-03-23T17:50:42.229Z,4.00
2023-03-23T18:01:37.262Z,4.10
2023-03-23T18:05:46.006Z,4.63
2023-03-23T18:09:26.233Z,5.43
2023-03-23T18:12:39.442Z,4.82
2023-03-23T18:16:17.214Z,5.05
2023-03-23T18:19:53.755Z,6.13
2023-03-23T18:22:59.600Z,6.22
2023-03-23T18:26:18.329Z,7.18
2023-03-23T18:30:20.557Z,6.30
2023-03-23T18:33:29.891Z,7.07
2023-03-23T18:36:43.262Z,6.50
2023-03-23T18:40:05.380Z,6.43
2023-03-23T18:43:20.840Z,6.97
2023-03-23T18:46:54.508Z,6.65
2023-03-23T18:50:12.118Z,6.68
2023-03-23T18:53:20.712Z,6.73
2023-03-23T18:56:48.334Z,6.70
2023-03-23T18:59:59.088Z,7.03
2023-03-23T19:03:16.100Z,8.80
2023-03-23T19:06:37.380Z,9.25
2023-03-23T19:10:08.820Z,7.93
2023-03-23T19:13:24.873Z,8.02
2023-03-23T19:16:40.635Z,7.50
2023-03-23T19:21:12.539Z,7.38
2023-03-23T19:29:45.430Z,8.33
2023-03-23T19:33:54.514Z,8.23
2023-03-23T19:37:17.502Z,8.00
2023-03-23T19:40:42.582Z,8.85
2023-03-23T19:43:58.075Z,8.73
2023-03-23T19:47:23.354Z,9.00
2023-03-23T19:50:41.510Z,8.82
2023-03-23T19:54:07.599Z,9.75
2023-03-23T19:57:23.252Z,9.20
2023-03-23T20:00:29.074Z,9.23
2023-03-23T20:03:39.516Z,9.10
2023-03-23T20:07:03.191Z,9.85
2023-03-23T20:10:33.494Z,10.88
2023-03-23T20:13:52.819Z,11.43
2023-03-23T20:17:09.754Z,10.82
2023-03-23T20:20:29.583Z,10.07
2023-03-23T20:27:08.076Z,10.73
2023-03-23T20:30:43.450Z,10.05
2023-03-23T20:34:00.856Z,11.32
2023-03-23T20:37:13.137Z,11.00
2023-03-23T20:44:18.360Z,10.63
2023-03-23T20:47:25.146Z,8.80
2023-03-23T20:50:34.436Z,9.20
2023-03-23T20:53:45.913Z,8.40
2023-03-23T20:57:09.907Z,8.52
2023-03-23T21:00:16.715Z,8.85
2023-03-23T21:03:23.365Z,9.07
2023-03-23T21:06:32.478Z,8.52
2023-03-23T21:09:49.669Z,8.27
2023-03-23T21:12:53.970Z,7.78
2023-03-23T21:15:58.172Z,8.20
2023-03-23T21:19:15.681Z,7.65
2023-03-23T21:22:25.711Z,8.57
2023-03-23T21:25:38.505Z,8.73
2023-03-23T21:28:45.988Z,8.15
2023-03-23T21:32:08.688Z,8.95
2023-03-23T21:35:15.569Z,9.93
2023-03-23T21:38:33.277Z,9.32
2023-03-23T21:41:42.146Z,9.33
2023-03-23T21:44:49.983Z,8.95
2023-03-23T21:48:07.121Z,9.50
2023-03-23T21:51:14.118Z,8.88
2023-03-23T21:57:47.082Z,9.17
2023-03-23T22:04:14.256Z,8.93
2023-03-23T22:07:32.182Z,9.85
2023-03-23T22:10:43.606Z,10.50
2023-03-23T22:14:19.002Z,10.83
2023-03-23T22:18:50.694Z,10.25
2023-03-23T22:21:51.627Z,10.50
2023-03-23T22:25:16.218Z,10.85
2023-03-23T22:28:31.131Z,9.93
2023-03-23T22:32:07.286Z,10.10
2023-03-23T22:35:31.424Z,9.45
2023-03-23T22:39:15.348Z,9.52
2023-03-23T22:42:49.346Z,10.68
2023-03-23T22:46:17.514Z,10.50
2023-03-23T22:53:43.833Z,10.32
2023-03-23T22:57:07.095Z,9.68
2023-03-23T23:03:41.598Z,10.30
2023-03-23T23:07:06.676Z,9.80
2023-03-23T23:11:15.308Z,9.52
2023-03-23T23:14:53.724Z,8.90
2023-03-23T23:18:52.614Z,8.95
2023-03-23T23:22:19.893Z,10.10
2023-03-23T23:25:42.127Z,9.90
2023-03-23T23:29:44.196Z,9.98
2023-03-23T23:40:57.997Z,10.82
2023-03-23T23:53:50.400Z,11.93
2023-03-23T23:57:27.652Z,12.43
